Archival Weather

Republic

Farmingdale, New York (KFRG)

Report from: Thursday, January 25, 2024 1:14 PM EST
Current time: Monday, June 17, 2024 4:40 AM EDT

Current weather – Weather history – Daily summaries
Weather forecast

Temperature13.9°C (57.0°F)
Dew point12.2°C (54.0°F)
Winds 3 kts (1.5 m/s, 3.5 mph) West (280°)
Visibility7 mi. (11.3 km)
Clouds Ceiling: Broken clouds 4,600 ft. (1,402 m)
Overcast 6,000 ft. (1,829 m)
Altimeter30.09 in.Hg (1019 mB)
Relative humidity89 %
Density altitude-125 ft. (-38 m)
Remarks Automated weather observing station with precipitation discriminator
Flight conditions Visual Meteorological Conditions
Raw dataKFRG 251814Z 28003KT 7SM BKN046 OVC060 14/12 A3009 RMK AO2 T01390122
An error has occurred. This application may no longer respond until reloaded. Reload 🗙